Terminal Aerodrome Forecast
Issued by NWS

Home | Current Version | Previous Version | Text Only | Print | Product List | Glossary On
Versions: 1 2 3 4 5 6 7 8 9 10 11 12 13 14 15 16 17 18 19 20 21
000
FTUS46 KHNX 190926 AAB
TAFMER
TAF AMD
KMER 190926Z 1909/2006 32010KT 4SM -RA FEW015 OVC035
     FM191200 32010KT 3SM BR VCSH BKN025
     FM200200 32008KT 4SM BR BKN035=

USA.gov is the U.S. government's official web portal to all federal, state and local government web resources and services.